Map

Track Data

SID SEASON NUMBER BASIN SUBBASIN NAME ISO_TIME NATURE LAT LON WMO_WIND WMO_PRES WMO_AGENCY TRACK_TYPE DIST2LAND LANDFALL IFLAG USA_AGENCY USA_ATCF_ID USA_LAT USA_LON USA_RECORD USA_STATUS USA_WIND USA_PRES USA_SSHS USA_R34_NE USA_R34_SE USA_R34_SW USA_R34_NW USA_R50_NE USA_R50_SE USA_R50_SW USA_R50_NW USA_R64_NE USA_R64_SE USA_R64_SW USA_R64_NW USA_POCI USA_ROCI USA_RMW USA_EYE TOKYO_LAT TOKYO_LON TOKYO_GRADE TOKYO_WIND TOKYO_PRES TOKYO_R50_DIR TOKYO_R50_LONG TOKYO_R50_SHORT TOKYO_R30_DIR TOKYO_R30_LONG TOKYO_R30_SHORT TOKYO_LAND CMA_LAT CMA_LON CMA_CAT CMA_WIND CMA_PRES HKO_LAT HKO_LON HKO_CAT HKO_WIND HKO_PRES NEWDELHI_LAT NEWDELHI_LON NEWDELHI_GRADE NEWDELHI_WIND NEWDELHI_PRES NEWDELHI_CI NEWDELHI_DP NEWDELHI_POCI REUNION_LAT REUNION_LON REUNION_TYPE REUNION_WIND REUNION_PRES REUNION_TNUM REUNION_CI REUNION_RMW REUNION_R34_NE REUNION_R34_SE REUNION_R34_SW REUNION_R34_NW REUNION_R50_NE REUNION_R50_SE REUNION_R50_SW REUNION_R50_NW REUNION_R64_NE REUNION_R64_SE REUNION_R64_SW REUNION_R64_NW BOM_LAT BOM_LON BOM_TYPE BOM_WIND BOM_PRES BOM_TNUM BOM_CI BOM_RMW BOM_R34_NE BOM_R34_SE BOM_R34_SW BOM_R34_NW BOM_R50_NE BOM_R50_SE BOM_R50_SW BOM_R50_NW BOM_R64_NE BOM_R64_SE BOM_R64_SW BOM_R64_NW BOM_ROCI BOM_POCI BOM_EYE BOM_POS_METHOD BOM_PRES_METHOD NADI_LAT NADI_LON NADI_CAT NADI_WIND NADI_PRES WELLINGTON_LAT WELLINGTON_LON WELLINGTON_WIND WELLINGTON_PRES DS824_LAT DS824_LON DS824_STAGE DS824_WIND DS824_PRES TD9636_LAT TD9636_LON TD9636_STAGE TD9636_WIND TD9636_PRES TD9635_LAT TD9635_LON TD9635_WIND TD9635_PRES TD9635_ROCI NEUMANN_LAT NEUMANN_LON NEUMANN_CLASS NEUMANN_WIND NEUMANN_PRES MLC_LAT MLC_LON MLC_CLASS MLC_WIND MLC_PRES USA_GUST BOM_GUST BOM_GUST_PER REUNION_GUST REUNION_GUST_PER USA_SEAHGT USA_SEARAD_NE USA_SEARAD_SE USA_SEARAD_SW USA_SEARAD_NW STORM_SPEED STORM_DIR
1978168N11242 1978 37 EP MM BUD 1978-06-17 00:00:00 TS 11.2000 -118.000 25 hurdat_epa main 1560 1553 O________OO___ hurdat_epa EP021978 11.2000 -118.000 TD 25 -1 11.2000 -118.000 TC 25 11.2000 -118.000 1 25 12 302
1978168N11242 1978 37 EP MM BUD 1978-06-17 03:00:00 TS 11.5069 -118.494 main 1561 1558 P________PP___ EP021978 11.5201 -118.477 TD 27 -1 11.5201 -118.477 TC 27 11.4541 -118.562 1 27 12 300
1978168N11242 1978 37 EP MM BUD 1978-06-17 06:00:00 TS 11.7812 -119.024 30 hurdat_epa main 1565 1565 O________OP___ hurdat_epa EP021978 11.8000 -119.000 TD 30 -1 11.8000 -119.000 TC 30 11.7061 -119.119 1 30 12 294
1978168N11242 1978 37 EP MM BUD 1978-06-17 09:00:00 TS 12.0030 -119.607 main 1587 1587 P________PP___ EP021978 12.0150 -119.593 TD 32 -1 12.0150 -119.593 TC 32 11.9551 -119.667 1 32 12 290
1978168N11242 1978 37 EP MM BUD 1978-06-17 12:00:00 TS 12.2000 -120.200 35 hurdat_epa main 1611 1611 O________OO___ hurdat_epa EP021978 12.2000 -120.200 TS 35 0 12.2000 -120.200 TC 35 12.2000 -120.200 2 35 12 289
1978168N11242 1978 37 EP MM BUD 1978-06-17 15:00:00 TS 12.3962 -120.755 main 1638 1637 P________PP___ EP021978 12.3849 -120.765 TS 37 0 12.3849 -120.765 TC 37 12.4413 -120.717 2 38 11 291
1978168N11242 1978 37 EP MM BUD 1978-06-17 18:00:00 TS 12.6168 -121.286 40 hurdat_epa main 1659 1659 O________OP___ hurdat_epa EP021978 12.6000 -121.300 TS 40 0 12.6000 -121.300 TC 40 12.6841 -121.228 2 42 11 296
1978168N11242 1978 37 EP MM BUD 1978-06-17 21:00:00 TS 12.8888 -121.784 main 1667 1664 P________PP___ EP021978 12.8773 -121.793 TS 45 0 12.8773 -121.793 TC 45 12.9349 -121.751 2 46 12 301
1978168N11242 1978 37 EP MM BUD 1978-06-18 00:00:00 TS 13.2000 -122.300 50 hurdat_epa main 1673 1671 O________OO___ hurdat_epa EP021978 13.2000 -122.300 TS 50 0 13.2000 -122.300 TC 50 13.2000 -122.300 2 50 13 302
1978168N11242 1978 37 EP MM BUD 1978-06-18 03:00:00 TS 13.5438 -122.882 main 1688 1680 P________PP___ EP021978 13.5574 -122.877 TS 50 0 13.5574 -122.877 TC 50 13.4896 -122.900 2 50 14 300
1978168N11242 1978 37 EP MM BUD 1978-06-18 06:00:00 TS 13.8785 -123.506 50 hurdat_epa main 1698 1698 O________OP___ hurdat_epa EP021978 13.9000 -123.500 TS 50 0 13.9000 -123.500 TC 50 13.7924 -123.528 2 50 14 296
1978168N11242 1978 37 EP MM BUD 1978-06-18 09:00:00 TS 14.1457 -124.153 main 1734 1726 P________PP___ EP021978 14.1574 -124.150 TS 50 0 14.1574 -124.150 TC 50 14.0990 -124.166 2 50 14 293
1978168N11242 1978 37 EP MM BUD 1978-06-18 12:00:00 TS 14.4000 -124.800 50 hurdat_epa main 1757 1757 O________OO___ hurdat_epa EP021978 14.4000 -124.800 TS 50 0 14.4000 -124.800 TC 50 14.4000 -124.800 2 50 13 294
1978168N11242 1978 37 EP MM BUD 1978-06-18 15:00:00 TS 14.7011 -125.414 main 1782 1782 P________PP___ EP021978 14.6998 -125.408 TS 50 0 14.6998 -125.408 TC 50 14.7065 -125.439 2 48 13 297
1978168N11242 1978 37 EP MM BUD 1978-06-18 18:00:00 TS 15.0005 -126.013 50 hurdat_epa main 1809 1809 O________OP___ hurdat_epa EP021978 15.0000 -126.000 TS 50 0 15.0000 -126.000 TC 50 15.0026 -126.067 2 47 13 295
1978168N11242 1978 37 EP MM BUD 1978-06-18 21:00:00 TS 15.2665 -126.642 main 1831 1831 P________PP___ EP021978 15.2651 -126.638 TS 47 0 15.2651 -126.638 TC 47 15.2723 -126.661 2 46 13 294
1978168N11242 1978 37 EP MM BUD 1978-06-19 00:00:00 TS 15.5000 -127.200 45 hurdat_epa main 1854 1853 O________OO___ hurdat_epa EP021978 15.5000 -127.200 TS 45 0 15.5000 -127.200 TC 45 15.5000 -127.200 2 45 10 297
1978168N11242 1978 37 EP MM BUD 1978-06-19 03:00:00 TS 15.7212 -127.588 main 1866 1858 P________PP___ EP021978 15.7296 -127.573 TS 42 0 15.7296 -127.573 TC 42 15.6875 -127.650 2 43 8 299
1978168N11242 1978 37 EP MM BUD 1978-06-19 06:00:00 TS 15.8862 -127.929 40 hurdat_epa main 1871 1871 O________OP___ hurdat_epa EP021978 15.9000 -127.900 TS 40 0 15.9000 -127.900 TC 40 15.8312 -128.046 2 42 8 290
1978168N11242 1978 37 EP MM BUD 1978-06-19 09:00:00 TS 15.9828 -128.346 main 1892 1892 P________PP___ EP021978 15.9949 -128.327 TS 40 0 15.9949 -128.327 TC 40 15.9345 -128.418 2 41 8 278
1978168N11242 1978 37 EP MM BUD 1978-06-19 12:00:00 TS 16.0000 -128.800 40 hurdat_epa main 1930 1930 O________OO___ hurdat_epa EP021978 16.0000 -128.800 TS 40 0 16.0000 -128.800 TC 40 16.0000 -128.800 2 40 9 266
1978168N11242 1978 37 EP MM BUD 1978-06-19 15:00:00 TS 15.9203 -129.289 main 1976 1976 P________PP___ EP021978 15.8925 -129.308 TS 37 0 15.8925 -129.308 TC 37 16.0315 -129.215 2 37 10 260
1978168N11242 1978 37 EP MM BUD 1978-06-19 18:00:00 TS 15.8373 -129.778 35 hurdat_epa main 2022 2022 O________OP___ hurdat_epa EP021978 15.8000 -129.800 TS 35 0 15.8000 -129.800 TC 35 16.0363 -129.660 2 35 9 268
1978168N11242 1978 37 EP MM BUD 1978-06-19 21:00:00 TS 15.8868 -130.198 main 2046 2046 P________PP___ EP021978 15.8698 -130.207 TS 32 -1 15.8698 -130.207 TC 32 16.0230 -130.125 2 32 8 282
1978168N11242 1978 37 EP MM BUD 1978-06-20 00:00:00 TS 16.0000 -130.600 30 hurdat_epa main 2070 2070 O________OO___ hurdat_epa EP021978 16.0000 -130.600 TD 30 -1 16.0000 -130.600 TC 30 16.0000 -130.600 1 30 8 286
1978168N11242 1978 37 EP MM BUD 1978-06-20 03:00:00 TS 16.1103 -131.035 main 2094 2094 P________P____ EP021978 16.1103 -131.035 TD 27 -1 16.1103 -131.035 TC 27 1 9 283
1978168N11242 1978 37 EP MM BUD 1978-06-20 06:00:00 TS 16.2000 -131.500 25 hurdat_epa main 2128 O________O____ hurdat_epa EP021978 16.2000 -131.500 TD 25 -1 16.2000 -131.500 TC 25 1 9 281

About IBTrACS Database

This database is a web-friendly format of International Best Track Archive for Climate Stewardship (IBTrACS), a global best track data archive curated by NOAA dating back to 1842.

Updated: 2021-12-06